Time;durP1;ratioP1;P1;durP2;ratioP2;P2;SDS_P1;SDS_P2;PMS_P1;PMS_P2;Temp;Humidity;BMP_temperature;BMP_pressure;BME280_temperature;BME280_humidity;BME280_pressure;Samples;Min_cycle;Max_cycle;Signal;HPM_P1;HPM_P2
2023/12/05 00:00:49;;;;;;;7.38;4.85;;;;;;;24.68;30.38;98158.50;4984212;28;20072;-43
2023/12/05 00:03:14;;;;;;;7.07;4.75;;;;;;;24.67;30.65;98154.25;4991583;28;20028;-43
2023/12/05 00:05:39;;;;;;;6.75;4.57;;;;;;;24.70;30.64;98167.00;4990943;28;20688;-43
2023/12/05 00:08:05;;;;;;;6.38;4.30;;;;;;;24.70;30.63;98161.47;4990278;28;20034;-43
2023/12/05 00:10:30;;;;;;;6.55;4.22;;;;;;;24.70;30.63;98167.00;4989529;28;20034;-43
2023/12/05 00:12:56;;;;;;;6.70;4.20;;;;;;;24.68;30.66;98169.53;4980262;28;20025;-42
2023/12/05 00:15:21;;;;;;;6.50;4.05;;;;;;;24.67;30.54;98159.78;4994688;28;20038;-43
2023/12/05 00:17:46;;;;;;;5.90;3.83;;;;;;;24.72;30.60;98161.69;4993931;28;20037;-45
2023/12/05 00:20:12;;;;;;;6.38;3.85;;;;;;;24.70;30.40;98173.25;4992106;28;20014;-43
2023/12/05 00:22:37;;;;;;;6.20;3.90;;;;;;;24.69;30.38;98162.75;4989467;28;20371;-44
2023/12/05 00:25:03;;;;;;;5.90;3.67;;;;;;;24.66;30.56;98164.53;4981738;28;20015;-44
2023/12/05 00:27:28;;;;;;;6.10;4.07;;;;;;;24.64;30.50;98169.84;4988750;28;20073;-43
2023/12/05 00:29:54;;;;;;;5.72;3.65;;;;;;;24.66;30.45;98170.06;4993753;28;20027;-42
2023/12/05 00:32:19;;;;;;;6.53;3.55;;;;;;;24.69;30.44;98163.50;4991084;28;20053;-42
2023/12/05 00:34:45;;;;;;;5.43;3.22;;;;;;;24.63;30.65;98165.59;4987996;28;20022;-43
2023/12/05 00:37:11;;;;;;;5.50;3.47;;;;;;;24.64;30.62;98169.09;4985559;28;20033;-43
2023/12/05 00:39:36;;;;;;;5.95;3.40;;;;;;;24.62;30.68;98177.16;4987698;28;20030;-43
2023/12/05 00:42:02;;;;;;;4.97;3.05;;;;;;;24.66;30.60;98183.09;4989401;28;20030;-45
2023/12/05 00:44:27;;;;;;;5.43;3.30;;;;;;;24.65;30.54;98189.91;4995003;28;20076;-43
2023/12/05 00:46:52;;;;;;;5.40;3.30;;;;;;;24.63;30.60;98184.16;4991386;28;20018;-43
2023/12/05 00:49:18;;;;;;;5.47;3.03;;;;;;;24.60;30.67;98188.72;4987347;28;20530;-43
2023/12/05 00:51:44;;;;;;;5.43;3.22;;;;;;;24.63;30.67;98189.69;4987967;28;20053;-43
2023/12/05 00:54:09;;;;;;;5.45;3.25;;;;;;;24.62;30.53;98188.19;4994153;28;20560;-43
2023/12/05 00:56:34;;;;;;;5.28;3.00;;;;;;;24.62;30.69;98188.19;4991767;28;20030;-43
2023/12/05 00:59:00;;;;;;;5.18;3.00;;;;;;;24.60;30.75;98188.72;4989646;28;20040;-47
2023/12/05 01:01:25;;;;;;;5.20;2.85;;;;;;;24.62;30.72;98194.44;4989310;28;20031;-43
2023/12/05 01:03:56;;;;;;;5.20;2.67;;;;;;;24.60;30.67;98196.25;4986642;28;20029;-44
2023/12/05 01:06:21;;;;;;;4.90;2.70;;;;;;;24.60;30.59;98185.22;4993122;28;20101;-43
2023/12/05 01:08:47;;;;;;;4.75;2.55;;;;;;;24.59;30.74;98189.22;4996132;28;20161;-43
2023/12/05 01:11:12;;;;;;;4.60;2.50;;;;;;;24.57;30.85;98191.78;4992887;28;20022;-44
2023/12/05 01:13:38;;;;;;;5.07;2.42;;;;;;;24.59;30.58;98189.22;4990394;28;20536;-43
2023/12/05 01:16:04;;;;;;;4.93;2.80;;;;;;;24.58;30.70;98187.78;4990556;28;20164;-43
2023/12/05 01:18:29;;;;;;;4.78;2.58;;;;;;;24.60;30.74;98196.25;4997575;28;20413;-43
2023/12/05 01:20:55;;;;;;;4.32;2.20;;;;;;;24.61;30.73;98200.50;4996796;28;20034;-44
2023/12/05 01:23:20;;;;;;;4.53;2.42;;;;;;;24.60;30.73;98201.75;4993640;28;20022;-43
2023/12/05 01:25:46;;;;;;;4.97;2.70;;;;;;;24.59;30.52;98186.47;4988199;28;20030;-43
2023/12/05 01:28:12;;;;;;;4.40;2.30;;;;;;;24.59;30.65;98189.97;4991345;28;20530;-42
2023/12/05 01:30:37;;;;;;;4.80;2.53;;;;;;;24.60;30.55;98190.72;4996543;28;20030;-43
2023/12/05 01:33:02;;;;;;;4.38;2.28;;;;;;;24.57;30.75;98183.53;4991917;28;20424;-43
2023/12/05 01:35:28;;;;;;;4.40;2.38;;;;;;;24.60;30.68;98190.72;4994000;28;20428;-46
2023/12/05 01:37:53;;;;;;;4.30;2.10;;;;;;;24.59;30.80;98197.50;4989320;28;20451;-42
2023/12/05 01:40:18;;;;;;;4.20;2.30;;;;;;;24.61;30.55;98194.97;4989542;28;20026;-45
2023/12/05 01:42:44;;;;;;;4.38;2.10;;;;;;;24.61;30.68;98208.75;4993700;28;20040;-43
2023/12/05 01:45:09;;;;;;;4.50;2.38;;;;;;;24.59;30.75;98203.03;4994078;28;20569;-42
2023/12/05 01:47:39;;;;;;;4.30;2.10;;;;;;;24.59;30.69;98203.03;4998129;28;20069;-43
2023/12/05 01:50:08;;;;;;;4.47;2.20;;;;;;;24.56;30.83;98204.09;4992397;28;20022;-43
2023/12/05 01:52:33;;;;;;;4.63;2.20;;;;;;;24.56;30.63;98199.31;4989534;28;20521;-43
2023/12/05 01:54:59;;;;;;;3.95;2.03;;;;;;;24.55;30.79;98197.09;4994103;28;20026;-43
2023/12/05 01:57:24;;;;;;;4.07;1.90;;;;;;;24.56;30.68;98199.31;4996785;28;20500;-43
2023/12/05 01:59:51;;;;;;;3.75;1.90;;;;;;;24.52;30.73;98212.69;4995338;28;20045;-43
2023/12/05 02:02:16;;;;;;;3.83;1.90;;;;;;;24.52;30.80;98201.63;4987447;28;20022;-43
2023/12/05 02:04:42;;;;;;;3.97;2.08;;;;;;;24.56;30.84;98206.84;4991204;28;20083;-43
2023/12/05 02:07:07;;;;;;;3.50;1.80;;;;;;;24.51;30.74;98204.91;4993088;28;20030;-43
2023/12/05 02:09:33;;;;;;;4.35;1.80;;;;;;;24.56;30.89;98202.09;4996144;28;20024;-44
2023/12/05 02:11:58;;;;;;;4.00;2.10;;;;;;;24.53;30.77;98205.88;4997403;28;20048;-44
2023/12/05 02:14:24;;;;;;;3.53;1.60;;;;;;;24.54;30.73;98206.63;4995617;28;20071;-43
2023/12/05 02:16:54;;;;;;;4.10;1.98;;;;;;;24.51;30.73;98202.16;4978453;28;20018;-43
2023/12/05 02:19:42;;;;;;;3.53;1.88;;;;;;;24.55;30.76;98205.38;5011680;28;20021;-43
2023/12/05 02:22:25;;;;;;;4.20;2.10;;;;;;;24.54;30.84;98203.88;4995397;28;20124;-43
2023/12/05 02:25:01;;;;;;;3.40;1.70;;;;;;;24.53;30.73;98208.66;4999316;28;20022;-43
2023/12/05 02:27:39;;;;;;;4.00;1.83;;;;;;;24.55;30.84;98205.38;4988924;28;20026;-43
2023/12/05 02:30:05;;;;;;;3.58;1.70;;;;;;;24.57;30.68;98211.09;4989340;28;20185;-44
2023/12/05 02:32:30;;;;;;;3.75;1.77;;;;;;;24.54;30.65;98220.44;4993834;28;20749;-43
2023/12/05 02:34:56;;;;;;;3.30;1.50;;;;;;;24.53;30.69;98214.16;4995178;28;20401;-43
2023/12/05 02:37:31;;;;;;;3.72;1.80;;;;;;;24.54;30.73;98217.66;4991418;28;20026;-43
2023/12/05 02:40:10;;;;;;;3.35;1.58;;;;;;;24.53;30.65;98218.94;4991558;28;20022;-43
2023/12/05 02:42:35;;;;;;;4.15;1.80;;;;;;;24.53;30.85;98211.41;4989783;28;20026;-42
2023/12/05 02:45:01;;;;;;;3.63;1.67;;;;;;;24.52;30.85;98215.44;4994142;28;20030;-43
2023/12/05 02:47:26;;;;;;;3.83;1.70;;;;;;;24.53;30.90;98224.44;4993951;28;20034;-43
2023/12/05 02:49:52;;;;;;;4.07;1.55;;;;;;;24.52;30.93;98211.94;4992433;28;20033;-43
2023/12/05 02:52:17;;;;;;;3.65;1.60;;;;;;;24.51;30.87;98211.19;4982208;28;20026;-43
2023/12/05 02:54:43;;;;;;;2.97;1.48;;;;;;;24.50;31.10;98200.66;4986998;28;20049;-43
2023/12/05 02:57:08;;;;;;;3.40;1.58;;;;;;;24.51;30.92;98210.44;4998530;28;20026;-44
2023/12/05 02:59:33;;;;;;;3.33;1.58;;;;;;;24.52;30.82;98214.69;4996798;28;20393;-43
2023/12/05 03:01:59;;;;;;;3.78;1.60;;;;;;;24.49;30.73;98218.50;4991723;28;20038;-43
2023/12/05 03:04:24;;;;;;;3.40;1.45;;;;;;;24.53;30.73;98210.66;4984941;28;20030;-43
2023/12/05 03:06:49;;;;;;;3.53;1.55;;;;;;;24.53;30.92;98210.66;4986739;28;20490;-43
2023/12/05 03:09:15;;;;;;;3.78;1.70;;;;;;;24.53;30.86;98211.41;4972700;28;20030;-43
2023/12/05 03:11:40;;;;;;;3.15;1.60;;;;;;;24.55;30.79;98219.16;4994439;28;20036;-44
2023/12/05 03:14:06;;;;;;;2.92;1.42;;;;;;;24.54;30.91;98214.91;4991020;28;20034;-42
2023/12/05 03:16:31;;;;;;;3.20;1.30;;;;;;;24.53;30.78;98210.66;4989828;28;20401;-44
2023/12/05 03:18:56;;;;;;;3.00;1.42;;;;;;;24.53;30.79;98221.69;4985181;28;20052;-43
2023/12/05 03:21:22;;;;;;;3.08;1.38;;;;;;;24.55;30.71;98206.13;4992999;28;20397;-43
2023/12/05 03:23:47;;;;;;;3.13;1.42;;;;;;;24.53;30.77;98221.69;4994354;28;20037;-44
2023/12/05 03:26:19;;;;;;;3.45;1.48;;;;;;;24.51;30.65;98224.22;4994888;28;20030;-43
2023/12/05 03:28:45;;;;;;;2.42;1.20;;;;;;;24.53;30.77;98218.94;4988111;28;20030;-44
2023/12/05 03:31:10;;;;;;;3.10;1.38;;;;;;;24.51;30.72;98221.47;4986978;28;20037;-43
2023/12/05 03:33:36;;;;;;;2.88;1.27;;;;;;;24.53;30.73;98216.19;4992051;28;20378;-42
2023/12/05 03:36:02;;;;;;;3.30;1.30;;;;;;;24.53;30.80;98218.94;4993413;28;20034;-43
2023/12/05 03:38:27;;;;;;;3.15;1.48;;;;;;;24.51;30.82;98230.50;4990769;28;20015;-42
2023/12/05 03:40:52;;;;;;;3.08;1.40;;;;;;;24.51;30.96;98232.50;4992144;28;20020;-43
2023/12/05 03:43:18;;;;;;;3.10;1.30;;;;;;;24.55;30.81;98238.47;4981936;28;20035;-43
2023/12/05 03:45:43;;;;;;;2.45;1.10;;;;;;;24.56;30.68;98228.94;4991116;28;20723;-43
2023/12/05 03:48:08;;;;;;;3.08;1.35;;;;;;;24.53;30.72;98232.72;4990705;28;20029;-43
2023/12/05 03:50:34;;;;;;;2.45;1.20;;;;;;;24.51;30.79;98233.25;4997709;28;20022;-42
2023/12/05 03:52:59;;;;;;;2.92;1.50;;;;;;;24.53;30.64;98235.47;4992250;28;20068;-44
2023/12/05 03:55:24;;;;;;;2.72;1.30;;;;;;;24.49;30.83;98246.06;4986846;28;20029;-43
2023/12/05 03:57:50;;;;;;;2.58;1.20;;;;;;;24.52;30.85;98245.03;4993061;28;20038;-43
2023/12/05 04:00:15;;;;;;;2.17;1.02;;;;;;;24.51;30.77;98251.81;4994980;28;20036;-45
2023/12/05 04:02:41;;;;;;;2.35;1.17;;;;;;;24.55;30.77;98243.97;4990113;28;20022;-43
2023/12/05 04:05:07;;;;;;;2.90;1.20;;;;;;;24.48;30.78;98239.81;4992599;28;20022;-43
2023/12/05 04:07:32;;;;;;;2.40;1.20;;;;;;;24.53;30.86;98246.53;4989588;28;20509;-43
2023/12/05 04:09:58;;;;;;;2.50;1.13;;;;;;;24.49;30.85;98246.81;4995897;28;20058;-42
2023/12/05 04:12:23;;;;;;;2.55;1.27;;;;;;;24.51;30.78;98243.53;4990265;28;20022;-42
2023/12/05 04:14:48;;;;;;;2.67;1.20;;;;;;;24.52;30.57;98250.53;4990815;28;20040;-43
2023/12/05 04:17:14;;;;;;;2.80;1.13;;;;;;;24.50;30.90;98258.59;4991123;28;20044;-42
2023/12/05 04:19:39;;;;;;;2.20;1.15;;;;;;;24.51;30.91;98251.81;4987490;28;20371;-43
2023/12/05 04:22:04;;;;;;;3.05;1.10;;;;;;;24.50;30.93;98272.38;4989260;28;20030;-43
2023/12/05 04:24:30;;;;;;;2.03;1.00;;;;;;;24.49;30.87;98263.38;4995670;28;20073;-44
2023/12/05 04:26:55;;;;;;;2.45;1.13;;;;;;;24.51;30.62;98271.13;4992283;28;20034;-43
2023/12/05 04:29:20;;;;;;;2.40;1.10;;;;;;;24.51;30.82;98260.84;4988546;28;20026;-43
2023/12/05 04:31:46;;;;;;;2.17;1.10;;;;;;;24.50;30.91;98258.59;4990198;28;20520;-43
2023/12/05 04:34:11;;;;;;;1.95;1.00;;;;;;;24.50;30.74;98253.06;4988051;28;20084;-43
2023/12/05 04:36:37;;;;;;;2.35;1.10;;;;;;;24.51;30.77;98257.31;4992029;28;20496;-45
2023/12/05 04:39:05;;;;;;;2.25;1.08;;;;;;;24.51;30.70;98265.59;4994766;28;20048;-44
2023/12/05 04:41:33;;;;;;;1.25;0.93;;;;;;;24.47;30.97;98262.41;4992436;28;20570;-43
2023/12/05 04:43:59;;;;;;;1.90;1.00;;;;;;;24.51;30.85;98262.84;4986186;28;20026;-43
2023/12/05 04:46:24;;;;;;;2.40;1.20;;;;;;;24.52;30.79;98256.81;4989954;28;20153;-43
2023/12/05 04:48:50;;;;;;;1.75;0.93;;;;;;;24.48;30.53;98264.63;4995446;28;20030;-43
2023/12/05 04:51:19;;;;;;;2.45;1.10;;;;;;;24.50;30.75;98270.38;4990635;28;20029;-43
2023/12/05 04:53:44;;;;;;;2.65;1.15;;;;;;;24.47;30.94;98265.16;5001285;28;20100;-44
2023/12/05 04:56:10;;;;;;;2.45;1.00;;;;;;;24.48;30.80;98264.63;4990384;28;20030;-43
2023/12/05 04:58:35;;;;;;;2.30;1.10;;;;;;;24.47;30.74;98268.66;4996489;28;20053;-44
2023/12/05 05:01:01;;;;;;;1.90;1.00;;;;;;;24.46;30.97;98267.16;4997479;28;20026;-43
2023/12/05 05:03:26;;;;;;;2.17;0.90;;;;;;;24.50;30.70;98269.63;4992601;28;20022;-44
2023/12/05 05:05:52;;;;;;;2.85;1.17;;;;;;;24.47;30.79;98276.19;4990679;28;20036;-44
2023/12/05 05:08:17;;;;;;;2.70;1.05;;;;;;;24.48;30.76;98277.69;4990731;28;20026;-42
2023/12/05 05:10:42;;;;;;;1.67;1.00;;;;;;;24.48;30.87;98277.69;4989105;28;20027;-43
2023/12/05 05:13:08;;;;;;;2.35;1.10;;;;;;;24.48;30.49;98272.91;4995682;28;20022;-42
2023/12/05 05:15:33;;;;;;;2.95;1.20;;;;;;;24.47;30.87;98282.44;4995374;28;20481;-43
2023/12/05 05:17:59;;;;;;;1.98;0.93;;;;;;;24.50;30.68;98281.41;4998803;28;20030;-45
2023/12/05 05:20:24;;;;;;;1.92;0.90;;;;;;;24.48;30.68;98280.44;4989564;28;20423;-43
2023/12/05 05:22:50;;;;;;;2.55;1.08;;;;;;;24.47;30.91;98276.94;4991442;28;20041;-43
2023/12/05 05:25:16;;;;;;;2.40;1.10;;;;;;;24.48;30.93;98285.94;4994875;28;20105;-44
2023/12/05 05:27:41;;;;;;;2.10;1.00;;;;;;;24.47;30.72;98292.72;4994189;28;20022;-44
2023/12/05 05:30:07;;;;;;;1.50;1.00;;;;;;;24.48;30.80;98300.50;4991627;28;20031;-43
2023/12/05 05:32:32;;;;;;;1.83;0.90;;;;;;;24.51;30.74;98287.66;4988812;28;20026;-43
2023/12/05 05:34:57;;;;;;;1.55;0.93;;;;;;;24.43;30.83;98282.00;4989121;28;20018;-43
2023/12/05 05:37:23;;;;;;;1.98;1.00;;;;;;;24.40;30.76;98277.53;4989375;28;20417;-43
2023/12/05 05:39:48;;;;;;;1.60;0.80;;;;;;;24.39;30.83;98290.56;4993609;28;20033;-43
2023/12/05 05:42:14;;;;;;;4.72;1.10;;;;;;;24.38;30.72;98291.09;4994473;28;20103;-43
2023/12/05 05:44:39;;;;;;;2.25;1.00;;;;;;;24.33;30.90;98289.16;4990355;28;20490;-44
2023/12/05 05:47:04;;;;;;;2.08;0.95;;;;;;;24.34;30.91;98279.63;4997835;28;20041;-43
2023/12/05 05:49:30;;;;;;;1.65;0.90;;;;;;;24.34;30.87;98282.38;4990257;28;20034;-44
2023/12/05 05:51:55;;;;;;;1.92;1.10;;;;;;;24.31;30.84;98278.66;4992895;28;20662;-43
2023/12/05 05:54:21;;;;;;;1.77;0.90;;;;;;;24.31;30.91;98283.41;4997790;28;20040;-44
2023/12/05 05:56:47;;;;;;;1.65;0.90;;;;;;;24.32;30.85;98282.91;4986426;28;20112;-42
2023/12/05 05:59:12;;;;;;;1.77;0.98;;;;;;;24.31;30.82;98294.44;4990985;28;20022;-42
2023/12/05 06:01:38;;;;;;;2.30;1.00;;;;;;;24.33;31.02;98289.16;4989281;28;20030;-42
2023/12/05 06:04:03;;;;;;;3.00;1.00;;;;;;;24.33;30.89;98298.19;4990001;28;20026;-42
2023/12/05 06:06:29;;;;;;;3.97;1.02;;;;;;;24.21;31.05;98291.28;4993681;28;20087;-42
2023/12/05 06:08:55;;;;;;;2.45;1.08;;;;;;;24.08;30.94;98287.69;4993510;28;20032;-42
2023/12/05 06:11:20;;;;;;;3.63;1.10;;;;;;;24.00;31.04;98293.03;4990366;28;20061;-43
2023/12/05 06:13:46;;;;;;;2.95;1.10;;;;;;;24.00;30.95;98295.78;4992207;28;20072;-42
2023/12/05 06:16:11;;;;;;;2.97;1.10;;;;;;;23.91;30.82;98298.91;4992840;28;20036;-43
2023/12/05 06:18:37;;;;;;;2.95;1.00;;;;;;;23.91;30.66;98293.41;4991269;28;20701;-42
2023/12/05 06:21:03;;;;;;;3.55;1.20;;;;;;;23.90;30.74;98302.94;4996300;28;20033;-42
2023/12/05 06:23:28;;;;;;;1.55;0.80;;;;;;;23.89;30.75;98307.69;4988435;28;20026;-43
2023/12/05 06:25:54;;;;;;;2.30;1.10;;;;;;;23.85;30.82;98312.75;4992481;28;20030;-43
2023/12/05 06:28:19;;;;;;;3.20;1.20;;;;;;;23.85;30.70;98309.25;4990538;28;20026;-42
2023/12/05 06:30:44;;;;;;;3.03;1.15;;;;;;;23.90;30.75;98311.19;4995115;28;20382;-42
2023/12/05 06:33:10;;;;;;;2.95;1.35;;;;;;;23.94;30.63;98314.41;4993038;28;20084;-42
2023/12/05 06:35:35;;;;;;;1.52;0.80;;;;;;;23.98;30.64;98303.84;4995087;28;20026;-42
2023/12/05 06:38:00;;;;;;;2.30;1.00;;;;;;;24.00;30.63;98306.81;4989340;28;20033;-42
2023/12/05 06:40:26;;;;;;;3.10;1.13;;;;;;;23.99;30.70;98305.31;4993522;28;20409;-42
2023/12/05 06:42:51;;;;;;;3.25;1.27;;;;;;;23.96;30.82;98311.91;4997593;28;20034;-42
2023/12/05 06:45:17;;;;;;;4.50;1.20;;;;;;;24.00;30.63;98313.06;4989794;28;20037;-42
2023/12/05 06:47:42;;;;;;;6.13;1.48;;;;;;;24.00;30.61;98306.81;4997167;28;20032;-42
2023/12/05 06:50:10;;;;;;;2.95;1.33;;;;;;;24.00;30.58;98317.84;4992888;28;20026;-42
2023/12/05 06:52:37;;;;;;;3.55;1.30;;;;;;;24.03;30.54;98316.81;4990994;28;20390;-42
2023/12/05 06:55:04;;;;;;;4.17;1.40;;;;;;;24.03;30.59;98312.03;4993757;28;20036;-42
2023/12/05 06:57:29;;;;;;;3.97;1.40;;;;;;;24.05;30.65;98323.28;4991236;28;20269;-42
2023/12/05 06:59:55;;;;;;;3.67;1.60;;;;;;;24.11;30.53;98328.00;4988201;28;20076;-42
2023/12/05 07:02:20;;;;;;;3.70;1.40;;;;;;;24.15;30.48;98329.22;4989372;28;20500;-42
2023/12/05 07:04:45;;;;;;;3.65;1.50;;;;;;;24.12;30.68;98333.00;4991191;28;20026;-42
2023/12/05 07:07:11;;;;;;;3.20;1.20;;;;;;;24.16;30.57;98341.72;4993155;28;20065;-42
2023/12/05 07:09:36;;;;;;;4.40;1.60;;;;;;;24.21;30.72;98346.41;4987469;28;20084;-40
2023/12/05 07:12:02;;;;;;;6.25;1.50;;;;;;;24.25;31.09;98343.41;4991970;28;20109;-42
2023/12/05 07:14:27;;;;;;;4.18;1.30;;;;;;;24.24;31.06;98347.41;4988649;28;20034;-43
2023/12/05 07:16:52;;;;;;;4.07;1.45;;;;;;;24.27;30.91;98351.91;4988707;28;20496;-45
2023/12/05 07:19:18;;;;;;;4.20;1.40;;;;;;;24.26;31.12;98356.66;4994621;28;20438;-39
2023/12/05 07:21:43;;;;;;;5.60;1.50;;;;;;;24.29;31.17;98350.13;4997114;28;20032;-41
2023/12/05 07:24:09;;;;;;;15.73;1.80;;;;;;;24.31;31.33;98358.63;4989850;28;20034;-41
2023/12/05 07:26:34;;;;;;;3.72;1.25;;;;;;;24.39;31.08;98365.03;4986095;28;20780;-41
2023/12/05 07:29:00;;;;;;;3.42;1.23;;;;;;;24.32;30.70;98357.34;4986746;28;20033;-39
2023/12/05 07:31:25;;;;;;;3.20;1.30;;;;;;;24.28;30.60;98375.44;4989871;28;20515;-40
2023/12/05 07:33:50;;;;;;;3.42;1.30;;;;;;;24.24;30.32;98369.47;4989874;28;20029;-40
2023/12/05 07:36:16;;;;;;;6.22;1.40;;;;;;;24.23;30.52;98374.22;4994075;28;20019;-40
2023/12/05 07:38:41;;;;;;;2.58;1.08;;;;;;;24.18;30.55;98380.53;4987121;28;20034;-40
2023/12/05 07:41:16;;;;;;;4.18;1.40;;;;;;;24.18;30.13;98383.28;4988161;28;20021;-39
2023/12/05 07:43:42;;;;;;;5.55;1.75;;;;;;;24.18;30.19;98380.53;4991241;28;20037;-40
2023/12/05 07:46:07;;;;;;;4.35;1.65;;;;;;;24.17;30.33;98387.34;4989761;28;20033;-39
2023/12/05 07:48:33;;;;;;;3.75;1.60;;;;;;;24.18;30.45;98375.03;4990884;28;20022;-40
2023/12/05 07:50:58;;;;;;;2.75;1.30;;;;;;;24.21;30.05;98387.78;4988859;28;20022;-40
2023/12/05 07:53:23;;;;;;;3.60;1.40;;;;;;;24.25;30.05;98379.25;4987783;28;20499;-40
2023/12/05 07:55:49;;;;;;;5.63;1.52;;;;;;;24.32;30.32;98387.69;4994167;28;20091;-42
2023/12/05 07:58:14;;;;;;;3.60;1.30;;;;;;;24.37;30.37;98391.66;4993402;28;20018;-43
2023/12/05 08:00:39;;;;;;;3.28;1.25;;;;;;;24.39;30.20;98384.34;4990927;28;20072;-42
2023/12/05 08:03:05;;;;;;;3.30;1.40;;;;;;;24.43;30.14;98377.78;4991446;28;20052;-44
2023/12/05 08:05:31;;;;;;;2.88;1.40;;;;;;;24.44;30.10;98379.28;4988088;28;20401;-46
2023/12/05 08:07:56;;;;;;;4.03;1.48;;;;;;;24.46;30.48;98379.50;4994968;28;20187;-43
2023/12/05 08:10:23;;;;;;;2.20;1.20;;;;;;;24.49;30.37;98395.75;4992476;28;20057;-44
2023/12/05 08:12:48;;;;;;;3.00;1.20;;;;;;;24.49;30.35;98393.00;4990758;28;20038;-41
2023/12/05 08:15:13;;;;;;;3.70;1.38;;;;;;;24.53;30.39;98395.47;4982417;28;20044;-43
2023/12/05 08:17:39;;;;;;;3.90;1.23;;;;;;;24.55;30.33;98398.47;4981158;28;20027;-45
2023/12/05 08:20:05;;;;;;;2.72;1.20;;;;;;;24.53;30.50;98404.50;4987592;28;20019;-43
2023/12/05 08:22:30;;;;;;;3.75;1.10;;;;;;;24.54;30.22;98396.97;4986679;28;20027;-43
2023/12/05 08:24:56;;;;;;;4.32;1.60;;;;;;;24.50;30.10;98405.53;4992937;28;20525;-42
2023/12/05 08:27:21;;;;;;;4.45;1.20;;;;;;;24.46;30.05;98396.06;4989859;28;20026;-42
2023/12/05 08:29:47;;;;;;;3.60;1.23;;;;;;;24.51;30.19;98395.25;4984031;28;20041;-43
2023/12/05 08:32:12;;;;;;;3.38;1.30;;;;;;;24.39;30.45;98409.16;4988367;28;20022;-43
2023/12/05 08:34:37;;;;;;;3.03;1.20;;;;;;;24.46;30.19;98409.84;4988947;28;20038;-43
2023/12/05 08:37:03;;;;;;;3.60;1.30;;;;;;;24.48;30.21;98415.59;4994059;28;20022;-43
2023/12/05 08:39:28;;;;;;;2.28;1.02;;;;;;;24.48;30.06;98410.06;4989599;28;20550;-43
2023/12/05 08:41:53;;;;;;;2.38;1.10;;;;;;;24.49;30.18;98406.06;4989985;28;20060;-42
2023/12/05 08:44:22;;;;;;;2.42;1.20;;;;;;;24.50;30.15;98405.53;4986190;28;20028;-42
2023/12/05 08:46:47;;;;;;;2.83;1.15;;;;;;;24.51;30.10;98411.78;4988531;28;20128;-42
2023/12/05 08:49:13;;;;;;;2.00;1.10;;;;;;;24.51;30.10;98403.53;4991241;28;20026;-42
2023/12/05 08:51:39;;;;;;;3.80;1.20;;;;;;;24.46;30.19;98407.09;4993459;28;20413;-42
2023/12/05 08:54:04;;;;;;;4.28;1.30;;;;;;;24.44;30.10;98412.38;4988822;28;20026;-46
2023/12/05 08:56:29;;;;;;;5.57;1.33;;;;;;;24.43;30.16;98410.88;4987392;28;20052;-44
2023/12/05 08:58:55;;;;;;;3.55;1.10;;;;;;;24.42;30.17;98406.63;4991147;28;20382;-43
2023/12/05 09:01:23;;;;;;;3.30;1.08;;;;;;;24.46;30.16;98416.09;4991581;28;20018;-42
2023/12/05 09:03:48;;;;;;;3.67;1.15;;;;;;;24.48;30.14;98407.31;4991177;28;20031;-42
2023/12/05 09:06:14;;;;;;;2.47;1.00;;;;;;;24.50;30.04;98408.28;4991422;28;20109;-42
2023/12/05 09:08:39;;;;;;;3.25;1.20;;;;;;;24.47;30.08;98412.09;4988668;28;20496;-42
2023/12/05 09:11:04;;;;;;;3.67;1.00;;;;;;;24.48;30.16;98418.34;4990032;28;20027;-44
2023/12/05 09:13:30;;;;;;;4.47;1.25;;;;;;;24.50;30.05;98424.09;4992853;28;20509;-42
2023/12/05 09:15:55;;;;;;;3.03;1.10;;;;;;;24.52;30.14;98424.31;4998363;28;20385;-42
2023/12/05 09:18:22;;;;;;;4.78;1.05;;;;;;;24.19;30.03;98417.88;4991680;28;20030;-46
2023/12/05 09:20:48;;;;;;;3.70;1.30;;;;;;;24.18;30.20;98424.66;4990014;28;20031;-43
2023/12/05 09:23:13;;;;;;;2.75;1.10;;;;;;;24.18;30.09;98421.88;4992172;28;20032;-42
2023/12/05 09:25:38;;;;;;;3.85;1.10;;;;;;;24.10;30.02;98423.75;4995721;28;20112;-43
2023/12/05 09:28:04;;;;;;;4.07;1.15;;;;;;;23.99;30.31;98432.84;4993514;28;20027;-42
2023/12/05 09:30:29;;;;;;;3.38;1.20;;;;;;;23.99;30.49;98432.09;4992656;28;20023;-41
2023/12/05 09:32:54;;;;;;;3.55;1.25;;;;;;;24.09;30.41;98424.25;4989512;28;20031;-41
2023/12/05 09:35:20;;;;;;;5.07;1.50;;;;;;;24.12;29.95;98429.50;4998317;28;20489;-41
2023/12/05 09:37:45;;;;;;;3.67;1.13;;;;;;;24.12;30.57;98434.25;4998258;28;20029;-41
2023/12/05 09:40:11;;;;;;;4.88;1.35;;;;;;;24.18;30.38;98440.47;4992562;28;20453;-41
2023/12/05 09:42:36;;;;;;;4.30;1.35;;;;;;;24.19;30.39;98439.94;4989415;28;20049;-41
2023/12/05 09:45:05;;;;;;;4.05;1.30;;;;;;;24.19;30.37;98445.44;5002424;28;20033;-41
2023/12/05 09:47:30;;;;;;;3.42;1.17;;;;;;;24.16;30.16;98454.75;5002230;28;20048;-40
2023/12/05 09:49:56;;;;;;;5.10;1.30;;;;;;;24.19;30.07;98461.97;4995161;28;20034;-40
2023/12/05 09:52:21;;;;;;;3.03;1.17;;;;;;;24.26;29.94;98455.19;4990884;28;20123;-42
2023/12/05 09:54:47;;;;;;;5.20;1.63;;;;;;;24.27;29.81;98462.94;4985624;28;20027;-42
2023/12/05 09:57:14;;;;;;;3.78;1.42;;;;;;;24.26;29.43;98455.19;4984850;28;20390;-42
2023/12/05 09:59:39;;;;;;;3.03;1.00;;;;;;;24.15;29.54;98460.78;4987892;28;20025;-41
2023/12/05 10:02:05;;;;;;;3.17;1.20;;;;;;;24.20;29.69;98457.97;4995460;28;20030;-42
2023/12/05 10:04:32;;;;;;;4.60;1.10;;;;;;;24.27;29.70;98445.66;4990163;28;20034;-44
2023/12/05 10:06:58;;;;;;;7.25;1.33;;;;;;;24.31;29.70;98446.13;5008123;28;20031;-45
2023/12/05 10:09:25;;;;;;;2.90;1.20;;;;;;;24.27;29.11;98440.88;4972971;28;20093;-43
2023/12/05 10:11:51;;;;;;;3.63;1.20;;;;;;;24.24;29.10;98444.66;4991552;28;20047;-43
2023/12/05 10:14:17;;;;;;;4.07;1.13;;;;;;;24.29;29.41;98446.63;4974679;28;20381;-42
2023/12/05 10:16:42;;;;;;;4.82;1.17;;;;;;;24.33;29.29;98438.06;4995536;28;20034;-41
2023/12/05 10:19:08;;;;;;;3.75;1.13;;;;;;;24.31;29.06;98443.34;4974068;28;20106;-43
2023/12/05 10:21:33;;;;;;;5.35;1.20;;;;;;;24.33;28.68;98449.84;4986050;28;20022;-43
2023/12/05 10:23:59;;;;;;;3.50;1.13;;;;;;;24.28;28.70;98458.94;4977440;28;20031;-44
2023/12/05 10:26:24;;;;;;;2.78;1.00;;;;;;;24.19;28.86;98461.97;4997799;28;20033;-43
2023/12/05 10:28:50;;;;;;;3.78;1.08;;;;;;;24.21;28.83;98453.94;4992129;28;20366;-42
2023/12/05 10:31:17;;;;;;;3.95;1.20;;;;;;;24.32;28.92;98447.63;4992398;28;20073;-43
2023/12/05 10:33:42;;;;;;;3.67;1.05;;;;;;;24.38;28.79;98457.31;4986283;28;20101;-42
2023/12/05 10:36:11;;;;;;;6.07;1.20;;;;;;;24.38;28.76;98438.00;4992904;28;20674;-43
2023/12/05 10:38:36;;;;;;;3.00;0.93;;;;;;;24.41;29.08;98455.53;4997863;28;20490;-43
2023/12/05 10:41:02;;;;;;;3.30;1.10;;;;;;;24.52;29.24;98462.94;4997745;28;20034;-42
2023/12/05 10:43:28;;;;;;;2.58;1.00;;;;;;;24.59;29.23;98449.28;4995137;28;20031;-42
2023/12/05 10:45:54;;;;;;;4.25;1.20;;;;;;;24.61;29.15;98446.03;4986243;28;20034;-44
2023/12/05 10:48:19;;;;;;;3.72;1.02;;;;;;;24.57;29.31;98434.56;4993126;28;20022;-47
2023/12/05 10:50:48;;;;;;;3.53;0.90;;;;;;;24.63;29.33;98440.72;4995597;28;20041;-44
2023/12/05 10:53:14;;;;;;;5.30;1.25;;;;;;;24.64;29.28;98436.72;4988972;28;20030;-43
2023/12/05 10:55:40;;;;;;;2.95;1.00;;;;;;;24.62;29.20;98431.72;4990050;28;20078;-42
2023/12/05 10:58:06;;;;;;;3.35;1.00;;;;;;;24.62;29.23;98430.97;4987631;28;20559;-42
2023/12/05 11:00:31;;;;;;;3.03;1.08;;;;;;;24.61;29.28;98441.25;4988784;28;20153;-46
2023/12/05 11:02:57;;;;;;;2.53;1.00;;;;;;;24.60;29.24;98431.47;4989508;28;20054;-43
2023/12/05 11:05:23;;;;;;;1.77;0.88;;;;;;;24.66;29.14;98434.19;4992495;28;20474;-43
2023/12/05 11:07:48;;;;;;;2.47;0.93;;;;;;;24.64;28.84;98437.47;4989909;28;20037;-44
2023/12/05 11:10:16;;;;;;;4.07;1.10;;;;;;;24.63;28.72;98424.19;4985315;28;20023;-43
2023/12/05 11:12:42;;;;;;;2.65;1.10;;;;;;;24.60;29.00;98436.25;4989352;28;20038;-43
2023/12/05 11:15:08;;;;;;;2.53;0.90;;;;;;;24.53;29.08;98434.84;4993391;28;20401;-44
2023/12/05 11:17:41;;;;;;;3.47;1.10;;;;;;;24.52;29.12;98449.91;4979714;28;20035;-43
2023/12/05 11:20:43;;;;;;;2.83;1.00;;;;;;;24.52;29.00;98438.13;4992106;28;20041;-44
2023/12/05 11:23:33;;;;;;;3.00;0.90;;;;;;;24.57;28.94;98442.84;4972062;28;20026;-42
2023/12/05 11:26:19;;;;;;;3.35;0.98;;;;;;;24.58;29.04;98441.56;4988858;28;20026;-43
2023/12/05 11:29:03;;;;;;;5.22;1.10;;;;;;;24.58;28.84;98444.31;4991231;28;20029;-43